Foxboro, Massachusetts
Current Conditions -  °F | °C
As of 6:53 PM on Monday 20 Oct 2014 (Local Time) from KOWD Reporting Station
Overcast Overcast  
Wind Chill: 53°   Ceiling: 11000
Heat Index: 53°   Visibility: 10mi
Dew Point: 34°   Wind: 3mph
Humidity: 48%   Direction: 200°SSW
Pressure: 29.99"   Gusts: NA
Location:  42.06°N, 71.25°W
Report Text: KOWD 202253Z 20003KT 10SM OVC110 12/01 A2999 RMK AO2 SLP154 T01170011
Loading
Personal Weather Stations






























Interactive Weather Map New forecast layout! Learn more

10-Day Weather Forecast

Advertisements
Track Severe Weather on mobile